createdAt,value
2018-05-26T00:02:39.258Z,16.30
2018-05-26T00:11:24.207Z,16.10
2018-05-26T00:19:51.915Z,16.10
2018-05-26T00:22:23.922Z,16.10
2018-05-26T00:24:52.451Z,16.10
2018-05-26T00:27:23.761Z,16.00
2018-05-26T00:35:38.897Z,16.10
2018-05-26T00:38:07.459Z,16.00
2018-05-26T00:40:54.347Z,15.90
2018-05-26T00:49:14.921Z,15.90
2018-05-26T00:51:43.412Z,15.90
2018-05-26T00:54:25.989Z,15.90
2018-05-26T01:02:49.397Z,15.70
2018-05-26T01:08:52.050Z,15.70
2018-05-26T01:11:20.574Z,15.60
2018-05-26T01:19:52.797Z,15.50
2018-05-26T01:28:15.107Z,15.40
2018-05-26T01:30:43.608Z,15.50
2018-05-26T01:39:24.066Z,15.40
2018-05-26T01:41:53.314Z,15.30
2018-05-26T01:44:39.940Z,15.30
2018-05-26T01:47:11.495Z,15.30
2018-05-26T01:55:41.839Z,15.20
2018-05-26T01:58:22.803Z,15.20
2018-05-26T02:03:53.680Z,15.10
2018-05-26T02:09:14.798Z,15.20
2018-05-26T02:14:50.927Z,15.20
2018-05-26T02:17:24.814Z,15.20
2018-05-26T02:31:48.725Z,15.10
2018-05-26T02:57:39.226Z,14.80
2018-05-26T03:21:24.715Z,14.60
2018-05-26T03:23:53.798Z,14.60
2018-05-26T03:32:10.361Z,14.50
2018-05-26T03:40:26.403Z,14.60
2018-05-26T03:51:53.645Z,14.60
2018-05-26T03:54:40.198Z,14.60
2018-05-26T04:30:02.188Z,15.60
2018-05-26T04:32:30.672Z,15.80
2018-05-26T04:34:59.278Z,16.10
2018-05-26T04:37:27.780Z,16.40
2018-05-26T04:39:56.326Z,16.40
2018-05-26T04:42:25.093Z,16.50
2018-05-26T04:44:53.700Z,16.60
2018-05-26T04:47:22.231Z,16.60
2018-05-26T04:49:50.736Z,16.80
2018-05-26T04:52:19.226Z,17.20
2018-05-26T04:54:47.678Z,17.50
2018-05-26T04:57:17.379Z,17.60
2018-05-26T05:02:49.010Z,17.80
2018-05-26T05:05:17.425Z,17.90
2018-05-26T05:07:46.029Z,18.20
2018-05-26T05:10:14.476Z,18.40
2018-05-26T05:12:42.710Z,18.60
2018-05-26T05:15:18.356Z,18.80
2018-05-26T05:17:48.260Z,19.10
2018-05-26T05:20:16.747Z,19.40
2018-05-26T05:26:10.819Z,19.70
2018-05-26T05:31:23.242Z,19.80
2018-05-26T05:33:55.331Z,19.80
2018-05-26T05:38:58.424Z,20.50
2018-05-26T05:41:28.008Z,20.80
2018-05-26T05:44:04.301Z,21.30
2018-05-26T05:46:32.761Z,21.80
2018-05-26T05:52:04.646Z,22.50
2018-05-26T05:57:35.955Z,22.90
2018-05-26T06:00:05.556Z,23.00
2018-05-26T06:02:34.245Z,23.20
2018-05-26T06:05:08.215Z,23.70
2018-05-26T06:10:47.390Z,24.20
2018-05-26T06:13:15.834Z,24.70
2018-05-26T06:15:45.487Z,24.90
2018-05-26T06:18:15.443Z,25.20
2018-05-26T06:20:51.928Z,25.40
2018-05-26T06:23:20.373Z,25.30
2018-05-26T06:25:48.914Z,25.40
2018-05-26T06:28:17.478Z,25.70
2018-05-26T06:30:46.080Z,25.90
2018-05-26T06:33:20.493Z,25.80
2018-05-26T06:35:53.036Z,25.80
2018-05-26T06:38:33.901Z,26.20
2018-05-26T06:41:02.395Z,26.20
2018-05-26T06:43:53.279Z,26.30
2018-05-26T06:48:59.321Z,24.50
2018-05-26T06:51:27.947Z,24.00
2018-05-26T06:54:13.562Z,23.70
2018-05-26T06:56:45.777Z,23.50
2018-05-26T06:59:22.642Z,23.60
2018-05-26T07:01:54.754Z,23.70
2018-05-26T07:04:23.831Z,23.90
2018-05-26T07:06:52.328Z,23.90
2018-05-26T07:09:22.230Z,24.50
2018-05-26T07:11:52.854Z,24.90
2018-05-26T07:14:23.765Z,25.00
2018-05-26T07:16:52.497Z,24.90
2018-05-26T07:19:21.062Z,24.60
2018-05-26T07:21:49.635Z,24.30
2018-05-26T07:24:18.168Z,24.30
2018-05-26T07:26:46.776Z,24.30
2018-05-26T07:29:19.396Z,24.20
2018-05-26T07:31:48.054Z,24.20
2018-05-26T07:34:22.119Z,24.20
2018-05-26T07:36:50.728Z,24.50
2018-05-26T07:39:19.473Z,25.30
2018-05-26T07:41:54.953Z,24.90
2018-05-26T07:44:23.496Z,24.50
2018-05-26T07:47:03.072Z,24.50
2018-05-26T07:49:31.879Z,24.50
2018-05-26T07:54:51.516Z,24.20
2018-05-26T07:57:21.253Z,24.40
2018-05-26T07:59:49.946Z,24.60
2018-05-26T08:02:18.471Z,24.80
2018-05-26T08:04:46.992Z,24.70
2018-05-26T08:07:15.502Z,24.40
2018-05-26T08:09:47.194Z,24.60
2018-05-26T08:12:17.758Z,25.00
2018-05-26T08:14:46.182Z,24.80
2018-05-26T08:17:14.713Z,25.10
2018-05-26T08:19:43.366Z,25.40
2018-05-26T08:22:11.786Z,25.20
2018-05-26T08:24:40.297Z,25.80
2018-05-26T08:27:08.715Z,26.10
2018-05-26T08:29:37.924Z,27.30
2018-05-26T08:32:07.066Z,27.80
2018-05-26T08:34:35.590Z,27.80
2018-05-26T08:37:03.981Z,27.50
2018-05-26T08:39:32.395Z,27.80
2018-05-26T08:42:00.994Z,27.80
2018-05-26T08:44:29.408Z,27.80
2018-05-26T08:46:59.303Z,28.10
2018-05-26T08:49:27.739Z,28.10
2018-05-26T08:51:56.934Z,28.30
2018-05-26T08:54:26.108Z,28.40
2018-05-26T08:56:54.515Z,28.40
2018-05-26T08:59:23.646Z,28.00
2018-05-26T09:01:53.157Z,28.60
2018-05-26T09:04:22.313Z,28.70
2018-05-26T09:06:50.785Z,28.70
2018-05-26T09:09:19.226Z,28.80
2018-05-26T09:11:47.722Z,28.50
2018-05-26T09:14:16.215Z,28.50
2018-05-26T09:16:44.646Z,28.70
2018-05-26T09:19:13.895Z,28.70
2018-05-26T09:21:42.363Z,28.70
2018-05-26T09:24:10.870Z,28.40
2018-05-26T09:35:09.862Z,28.50
2018-05-26T09:37:38.292Z,28.40
2018-05-26T09:40:06.982Z,28.60
2018-05-26T09:42:35.587Z,28.40
2018-05-26T09:45:03.988Z,28.90
2018-05-26T09:47:32.413Z,29.00
2018-05-26T09:50:00.862Z,28.70
2018-05-26T09:52:29.348Z,28.50
2018-05-26T09:54:57.787Z,28.60
2018-05-26T09:57:26.316Z,28.80
2018-05-26T09:59:54.830Z,29.10
2018-05-26T10:02:23.348Z,29.20
2018-05-26T10:04:51.842Z,29.30
2018-05-26T10:07:20.285Z,29.10
2018-05-26T10:09:49.196Z,29.20
2018-05-26T10:12:17.695Z,29.40
2018-05-26T10:14:46.198Z,29.70
2018-05-26T10:17:14.813Z,29.50
2018-05-26T10:19:44.221Z,29.80
2018-05-26T10:22:12.622Z,30.00
2018-05-26T10:24:41.049Z,29.60
2018-05-26T10:27:09.521Z,29.60
2018-05-26T10:29:38.053Z,29.80
2018-05-26T10:32:06.494Z,30.00
2018-05-26T10:34:34.962Z,30.10
2018-05-26T10:37:03.435Z,30.00
2018-05-26T10:39:32.732Z,30.30
2018-05-26T10:42:01.197Z,30.30
2018-05-26T10:44:29.671Z,30.30
2018-05-26T10:46:58.126Z,30.40
2018-05-26T10:49:26.549Z,30.70
2018-05-26T10:51:55.009Z,30.90
2018-05-26T10:54:23.410Z,31.10
2018-05-26T10:56:51.905Z,31.20
2018-05-26T10:59:21.278Z,31.20
2018-05-26T11:01:49.798Z,31.30
2018-05-26T11:04:18.555Z,31.70
2018-05-26T11:06:47.285Z,31.80
2018-05-26T11:09:15.804Z,32.00
2018-05-26T11:11:44.236Z,32.00
2018-05-26T11:14:12.731Z,31.30
2018-05-26T11:16:41.264Z,30.60
2018-05-26T11:19:09.786Z,30.70
2018-05-26T11:21:38.250Z,30.60
2018-05-26T11:24:07.051Z,30.30
2018-05-26T11:26:35.412Z,30.50
2018-05-26T11:29:03.916Z,31.00
2018-05-26T11:31:32.350Z,31.10
2018-05-26T11:34:01.879Z,30.90
2018-05-26T11:36:30.291Z,31.10
2018-05-26T11:38:58.729Z,31.40
2018-05-26T11:41:27.306Z,30.50
2018-05-26T11:43:55.689Z,30.50
2018-05-26T11:46:24.130Z,30.70
2018-05-26T11:48:52.612Z,30.80
2018-05-26T11:51:22.187Z,30.90
2018-05-26T11:53:50.611Z,30.90
2018-05-26T11:56:19.106Z,31.30
2018-05-26T11:58:47.522Z,31.80
2018-05-26T12:01:15.940Z,31.00
2018-05-26T12:03:44.491Z,31.40
2018-05-26T12:08:53.788Z,31.70
2018-05-26T12:11:23.047Z,31.70
2018-05-26T12:13:51.786Z,31.70
2018-05-26T12:16:20.329Z,31.80
2018-05-26T12:18:49.783Z,31.20
2018-05-26T12:21:18.254Z,31.20
2018-05-26T12:23:46.661Z,31.30
2018-05-26T12:26:15.237Z,31.50
2018-05-26T12:28:45.752Z,31.30
2018-05-26T12:31:15.069Z,31.90
2018-05-26T12:33:46.785Z,32.30
2018-05-26T12:36:15.256Z,32.20
2018-05-26T12:38:43.670Z,31.90
2018-05-26T12:41:11.831Z,32.10
2018-05-26T12:43:40.226Z,32.40
2018-05-26T12:46:11.969Z,31.70
2018-05-26T12:51:14.700Z,31.80
2018-05-26T12:53:44.737Z,32.30
2018-05-26T12:56:14.423Z,32.20
2018-05-26T12:58:42.846Z,32.50
2018-05-26T13:01:11.259Z,32.50
2018-05-26T13:03:39.729Z,32.80
2018-05-26T13:06:08.248Z,32.80
2018-05-26T13:08:37.766Z,32.60
2018-05-26T13:11:06.567Z,32.50
2018-05-26T13:13:35.065Z,32.20
2018-05-26T13:16:03.507Z,31.40
2018-05-26T13:18:31.941Z,31.50
2018-05-26T13:21:01.158Z,31.70
2018-05-26T13:23:36.143Z,31.70
2018-05-26T13:26:04.831Z,31.70
2018-05-26T13:28:33.228Z,31.30
2018-05-26T13:31:01.737Z,31.30
2018-05-26T13:33:30.210Z,31.20
2018-05-26T13:35:58.609Z,31.00
2018-05-26T13:38:27.001Z,30.50
2018-05-26T13:40:55.393Z,30.00
2018-05-26T13:43:23.917Z,30.10
2018-05-26T13:45:52.319Z,30.10
2018-05-26T13:48:20.761Z,29.90
2018-05-26T13:50:52.221Z,30.00
2018-05-26T13:53:22.022Z,29.90
2018-05-26T13:55:51.052Z,29.80
2018-05-26T13:58:19.612Z,29.70
2018-05-26T14:00:48.020Z,29.90
2018-05-26T14:03:17.525Z,29.70
2018-05-26T14:05:47.242Z,29.70
2018-05-26T14:08:15.648Z,29.40
2018-05-26T14:10:45.398Z,29.00
2018-05-26T14:13:13.944Z,29.00
2018-05-26T14:15:43.160Z,29.10
2018-05-26T14:18:11.571Z,29.10
2018-05-26T14:20:40.747Z,29.00
2018-05-26T14:23:09.212Z,29.00
2018-05-26T14:25:37.834Z,28.60
2018-05-26T14:28:06.747Z,28.70
2018-05-26T14:30:35.198Z,28.70
2018-05-26T14:33:03.545Z,28.80
2018-05-26T14:35:32.744Z,28.70
2018-05-26T14:38:02.052Z,28.70
2018-05-26T14:40:31.051Z,28.80
2018-05-26T14:42:59.543Z,28.80
2018-05-26T14:45:28.345Z,29.00
2018-05-26T14:47:56.753Z,28.90
2018-05-26T14:50:25.162Z,28.80
2018-05-26T14:52:53.282Z,28.80
2018-05-26T14:55:21.701Z,28.70
2018-05-26T14:57:50.101Z,28.50
2018-05-26T15:00:18.509Z,28.60
2018-05-26T15:02:46.906Z,28.40
2018-05-26T15:05:15.312Z,28.30
2018-05-26T15:07:43.776Z,28.20
2018-05-26T15:10:13.263Z,28.20
2018-05-26T15:12:41.820Z,28.20
2018-05-26T15:15:10.418Z,28.20
2018-05-26T15:17:39.658Z,28.00
2018-05-26T15:20:08.070Z,28.00
2018-05-26T15:22:36.255Z,28.10
2018-05-26T15:25:04.674Z,28.10
2018-05-26T15:27:33.162Z,28.10
2018-05-26T15:30:01.549Z,28.10
2018-05-26T15:32:29.973Z,28.10
2018-05-26T15:34:58.517Z,28.10
2018-05-26T15:37:26.999Z,28.00
2018-05-26T15:39:55.444Z,28.00
2018-05-26T15:42:24.008Z,28.00
2018-05-26T15:44:52.562Z,28.00
2018-05-26T15:47:21.814Z,27.70
2018-05-26T15:49:49.911Z,27.70
2018-05-26T15:52:19.387Z,27.90
2018-05-26T15:54:48.652Z,27.90
2018-05-26T15:57:17.175Z,27.90
2018-05-26T15:59:45.669Z,27.90
2018-05-26T16:02:14.195Z,28.00
2018-05-26T16:04:42.642Z,28.10
2018-05-26T16:07:11.160Z,28.10
2018-05-26T16:09:40.369Z,28.00
2018-05-26T16:12:09.754Z,28.00
2018-05-26T16:14:38.194Z,28.00
2018-05-26T16:17:07.386Z,27.70
2018-05-26T16:19:36.903Z,27.70
2018-05-26T16:22:06.684Z,27.60
2018-05-26T16:24:34.801Z,27.60
2018-05-26T16:27:03.262Z,27.70
2018-05-26T16:29:31.570Z,27.60
2018-05-26T16:32:01.022Z,27.40
2018-05-26T16:34:30.364Z,27.30
2018-05-26T16:36:58.769Z,27.30
2018-05-26T16:39:28.521Z,27.40
2018-05-26T16:42:12.150Z,27.40
2018-05-26T16:44:40.637Z,27.40
2018-05-26T16:47:09.143Z,27.40
2018-05-26T16:49:37.638Z,27.30
2018-05-26T16:52:06.012Z,27.20
2018-05-26T16:54:34.557Z,27.20
2018-05-26T16:57:05.833Z,27.10
2018-05-26T16:59:34.250Z,27.10
2018-05-26T17:02:02.679Z,27.10
2018-05-26T17:04:31.204Z,27.00
2018-05-26T17:07:00.529Z,27.00
2018-05-26T17:09:29.793Z,27.00
2018-05-26T17:12:00.194Z,26.90
2018-05-26T17:14:28.873Z,27.00
2018-05-26T17:16:58.073Z,26.80
2018-05-26T17:19:26.473Z,26.70
2018-05-26T17:21:54.882Z,26.80
2018-05-26T17:24:24.066Z,26.70
2018-05-26T17:26:52.568Z,26.60
2018-05-26T17:29:22.333Z,26.70
2018-05-26T17:31:50.813Z,26.70
2018-05-26T17:34:20.638Z,26.60
2018-05-26T17:36:49.090Z,26.60
2018-05-26T17:39:17.790Z,26.60
2018-05-26T17:41:46.289Z,26.60
2018-05-26T17:44:14.705Z,26.50
2018-05-26T17:46:43.675Z,26.40
2018-05-26T17:49:12.500Z,26.40
2018-05-26T17:51:40.904Z,26.30
2018-05-26T17:54:10.294Z,26.40
2018-05-26T17:56:38.722Z,26.40
2018-05-26T17:59:07.189Z,26.30
2018-05-26T18:01:36.135Z,26.30
2018-05-26T18:04:03.848Z,26.20
2018-05-26T18:06:32.250Z,26.10
2018-05-26T18:09:00.662Z,26.10
2018-05-26T18:11:30.181Z,26.10
2018-05-26T18:13:58.581Z,26.10
2018-05-26T18:16:27.754Z,26.00
2018-05-26T18:18:56.130Z,26.00
2018-05-26T18:21:24.790Z,26.10
2018-05-26T18:23:53.933Z,26.00
2018-05-26T18:26:22.433Z,26.00
2018-05-26T18:28:50.829Z,26.00
2018-05-26T18:31:19.570Z,26.00
2018-05-26T18:33:57.517Z,25.90
2018-05-26T18:36:25.938Z,25.90
2018-05-26T18:38:54.418Z,25.70
2018-05-26T18:41:22.815Z,25.70
2018-05-26T18:43:51.340Z,25.60
2018-05-26T18:46:19.807Z,25.60
2018-05-26T18:48:48.268Z,25.60
2018-05-26T18:51:16.915Z,25.50
2018-05-26T18:53:46.773Z,25.40
2018-05-26T18:56:15.229Z,25.30
2018-05-26T18:58:43.610Z,25.30
2018-05-26T19:01:12.046Z,25.20
2018-05-26T19:03:41.224Z,25.10
2018-05-26T19:06:09.708Z,25.10
2018-05-26T19:08:38.159Z,25.10
2018-05-26T19:11:07.382Z,24.90
2018-05-26T19:13:35.836Z,24.90
2018-05-26T19:16:04.315Z,24.90
2018-05-26T19:18:32.797Z,24.80
2018-05-26T19:21:01.190Z,24.80
2018-05-26T19:23:29.627Z,24.70
2018-05-26T19:25:58.002Z,24.70
2018-05-26T19:28:26.437Z,24.60
2018-05-26T19:30:54.992Z,24.50
2018-05-26T19:33:24.252Z,24.30
2018-05-26T19:35:52.654Z,24.30
2018-05-26T19:38:21.083Z,24.30
2018-05-26T19:40:49.502Z,24.30
2018-05-26T19:43:20.544Z,24.20
2018-05-26T19:45:48.954Z,24.10
2018-05-26T19:48:18.107Z,24.00
2018-05-26T19:53:19.183Z,23.90
2018-05-26T19:55:47.628Z,23.70
2018-05-26T19:58:16.346Z,23.60
2018-05-26T20:00:44.770Z,23.50
2018-05-26T20:03:13.156Z,23.50
2018-05-26T20:05:41.549Z,23.40
2018-05-26T20:08:09.946Z,23.30
2018-05-26T20:10:38.341Z,23.20
2018-05-26T20:13:06.973Z,23.10
2018-05-26T20:15:35.455Z,23.00
2018-05-26T20:18:03.998Z,23.00
2018-05-26T20:20:32.458Z,23.00
2018-05-26T20:23:00.883Z,22.80
2018-05-26T20:25:30.041Z,22.70
2018-05-26T20:27:58.467Z,22.60
2018-05-26T20:30:26.970Z,22.50
2018-05-26T20:32:55.370Z,22.50
2018-05-26T20:35:24.637Z,22.30
2018-05-26T20:37:53.185Z,22.30
2018-05-26T20:40:21.673Z,22.30
2018-05-26T20:42:50.089Z,22.20
2018-05-26T20:45:18.238Z,22.20
2018-05-26T20:47:46.806Z,22.10
2018-05-26T20:50:15.367Z,22.10
2018-05-26T20:52:43.973Z,22.10
2018-05-26T20:55:13.989Z,22.10
2018-05-26T20:57:42.729Z,22.20
2018-05-26T21:00:11.245Z,22.10
2018-05-26T21:02:40.504Z,22.20
2018-05-26T21:05:09.235Z,22.20
2018-05-26T21:07:37.739Z,22.20
2018-05-26T21:10:06.410Z,22.20
2018-05-26T21:12:34.943Z,22.20
2018-05-26T21:15:03.448Z,22.10
2018-05-26T21:17:32.134Z,22.00
2018-05-26T21:20:15.884Z,22.00
2018-05-26T21:22:44.538Z,22.10
2018-05-26T21:25:29.496Z,22.00
2018-05-26T21:31:00.880Z,21.70
2018-05-26T21:33:29.527Z,21.50
2018-05-26T21:35:58.685Z,21.40
2018-05-26T21:38:27.272Z,21.20
2018-05-26T21:40:55.772Z,21.10
2018-05-26T21:43:24.623Z,21.00
2018-05-26T21:45:53.289Z,21.00
2018-05-26T21:48:21.831Z,20.80
2018-05-26T21:50:53.450Z,20.70
2018-05-26T21:53:23.883Z,20.60
2018-05-26T21:55:52.919Z,20.40
2018-05-26T21:58:23.643Z,20.40
2018-05-26T22:00:55.228Z,20.30
2018-05-26T22:09:29.910Z,20.10
2018-05-26T22:11:58.062Z,20.00
2018-05-26T22:14:44.234Z,19.90
2018-05-26T22:17:12.789Z,19.90
2018-05-26T22:19:41.268Z,20.00
2018-05-26T22:22:09.763Z,19.90
2018-05-26T22:24:38.259Z,19.80
2018-05-26T22:27:06.754Z,19.70
2018-05-26T22:29:35.797Z,19.70
2018-05-26T22:34:44.789Z,19.70
2018-05-26T22:37:14.759Z,19.90
2018-05-26T22:39:43.486Z,20.10
2018-05-26T22:42:12.741Z,20.20
2018-05-26T22:44:43.753Z,20.20
2018-05-26T22:47:12.813Z,20.20
2018-05-26T22:49:41.338Z,20.10
2018-05-26T22:52:11.109Z,20.10
2018-05-26T22:54:39.672Z,20.10
2018-05-26T22:57:09.399Z,20.10
2018-05-26T22:59:39.042Z,20.10
2018-05-26T23:02:09.916Z,20.00
2018-05-26T23:04:38.684Z,20.00
2018-05-26T23:07:23.371Z,20.00
2018-05-26T23:09:53.117Z,19.90
2018-05-26T23:12:24.385Z,19.80
2018-05-26T23:17:56.020Z,19.70
2018-05-26T23:20:24.657Z,19.60
2018-05-26T23:22:53.239Z,19.50
2018-05-26T23:25:21.922Z,19.50
2018-05-26T23:27:53.931Z,19.50
2018-05-26T23:30:22.692Z,19.50
2018-05-26T23:32:51.204Z,19.40
2018-05-26T23:35:20.614Z,19.50
2018-05-26T23:37:49.118Z,19.50
2018-05-26T23:40:17.660Z,19.50
2018-05-26T23:42:46.447Z,19.60
2018-05-26T23:45:15.034Z,19.50
2018-05-26T23:47:43.595Z,19.50
2018-05-26T23:50:12.171Z,19.50
2018-05-26T23:52:40.661Z,19.60
2018-05-26T23:55:09.257Z,19.50
2018-05-26T23:57:37.695Z,19.50
